Time,TemperatureF,DewpointF,PressureIn,WindDirection,WindDirectionDegrees,WindSpeedMPH,WindSpeedGustMPH,Humidity,HourlyPrecipIn,Conditions,Clouds,dailyrainin,SoftwareType,DateUTC
2013-09-17 00:01:00,37.8,37.8,30.31,NE,38,0.0,0.0,100,0.00,,OVC044,0.00,VWS V12.08,2013-09-17 04:01:00,
2013-09-17 00:02:00,37.8,37.8,30.31,NE,38,0.0,0.0,100,0.00,,OVC044,0.00,VWS V12.08,2013-09-17 04:02:00,
2013-09-17 00:07:00,37.8,37.8,30.31,NE,38,0.0,0.0,100,0.00,,OVC044,0.00,VWS V12.08,2013-09-17 04:07:00,
2013-09-17 00:12:00,37.6,37.6,30.31,NE,38,0.0,0.0,100,0.00,,OVC044,0.00,VWS V12.08,2013-09-17 04:12:00,
2013-09-17 00:17:00,37.6,37.6,30.31,NE,38,0.0,0.0,100,0.00,,OVC044,0.00,VWS V12.08,2013-09-17 04:17:00,
2013-09-17 00:22:00,37.3,37.3,30.31,NE,38,0.0,0.0,100,0.00,,OVC044,0.00,VWS V12.08,2013-09-17 04:22:00,
2013-09-17 00:27:00,37.2,37.2,30.32,NE,38,0.0,0.0,100,0.00,,OVC044,0.00,VWS V12.08,2013-09-17 04:27:00,
2013-09-17 00:32:00,37.0,37.0,30.32,NE,38,0.0,0.0,100,0.00,,OVC044,0.00,VWS V12.08,2013-09-17 04:32:00,
2013-09-17 00:37:00,37.0,37.0,30.32,NE,38,0.0,0.0,100,0.00,,OVC044,0.00,VWS V12.08,2013-09-17 04:37:00,
2013-09-17 00:42:00,36.9,36.9,30.32,NE,38,0.0,0.0,100,0.00,,FEW044,0.00,VWS V12.08,2013-09-17 04:42:00,
2013-09-17 00:47:00,36.8,36.8,30.32,NE,38,0.0,0.0,100,0.00,,FEW044,0.00,VWS V12.08,2013-09-17 04:47:00,
2013-09-17 00:52:00,36.6,36.6,30.32,NE,38,0.0,0.0,100,0.00,,FEW044,0.00,VWS V12.08,2013-09-17 04:52:00,
2013-09-17 00:57:00,36.5,36.5,30.33,NE,38,0.0,0.0,100,0.00,,FEW044,0.00,VWS V12.08,2013-09-17 04:57:00,
2013-09-17 01:02:00,36.5,36.5,30.33,NE,38,0.0,0.0,100,0.00,,FEW044,0.00,VWS V12.08,2013-09-17 05:02:00,
2013-09-17 01:07:00,36.3,36.3,30.33,NE,38,0.0,0.0,100,0.00,,FEW044,0.00,VWS V12.08,2013-09-17 05:07:00,
2013-09-17 01:12:00,36.2,36.2,30.33,NE,38,0.0,0.0,100,0.00,,FEW044,0.00,VWS V12.08,2013-09-17 05:12:00,
2013-09-17 01:17:00,36.2,36.2,30.33,NE,38,0.0,0.0,100,0.00,,FEW044,0.00,VWS V12.08,2013-09-17 05:17:00,
2013-09-17 01:22:00,36.2,36.2,30.33,NE,38,0.0,0.0,100,0.00,,FEW044,0.00,VWS V12.08,2013-09-17 05:22:00,
2013-09-17 01:27:00,36.0,36.0,30.34,NE,38,0.0,0.0,100,0.00,,FEW044,0.00,VWS V12.08,2013-09-17 05:27:00,
2013-09-17 01:32:00,36.0,36.0,30.34,NE,38,0.0,0.0,100,0.00,,FEW044,0.00,VWS V12.08,2013-09-17 05:32:00,
2013-09-17 01:37:00,35.9,35.9,30.34,NE,38,0.0,0.0,100,0.00,,FEW044,0.00,VWS V12.08,2013-09-17 05:37:00,
2013-09-17 01:42:00,35.9,35.9,30.34,NE,38,0.0,0.0,100,0.00,,CLR,0.00,VWS V12.08,2013-09-17 05:42:00,
2013-09-17 01:47:00,35.9,35.9,30.34,NE,38,0.0,0.0,100,0.00,,CLR,0.00,VWS V12.08,2013-09-17 05:47:00,
2013-09-17 01:52:00,35.9,35.9,30.34,NE,37,0.0,0.0,100,0.00,,CLR,0.00,VWS V12.08,2013-09-17 05:52:00,
2013-09-17 01:57:00,35.9,35.9,30.34,NE,38,0.0,0.0,100,0.00,,CLR,0.00,VWS V12.08,2013-09-17 05:57:00,
2013-09-17 02:02:00,35.9,35.9,30.34,NE,38,0.0,0.0,100,0.00,,CLR,0.00,VWS V12.08,2013-09-17 06:02:00,
2013-09-17 02:07:00,35.9,35.9,30.34,NE,38,0.0,0.0,100,0.00,,CLR,0.00,VWS V12.08,2013-09-17 06:07:00,
2013-09-17 02:12:00,35.9,35.9,30.34,NE,38,0.0,3.0,100,0.00,,CLR,0.00,VWS V12.08,2013-09-17 06:12:00,
2013-09-17 02:17:00,35.9,35.9,30.34,NE,38,0.0,0.0,100,0.00,,CLR,0.00,VWS V12.08,2013-09-17 06:17:00,
2013-09-17 02:22:00,35.8,35.8,30.34,NE,38,0.0,0.0,100,0.00,,CLR,0.00,VWS V12.08,2013-09-17 06:22:00,
2013-09-17 02:27:00,35.8,35.8,30.34,NE,38,0.0,2.0,100,0.00,,CLR,0.00,VWS V12.08,2013-09-17 06:27:00,
2013-09-17 02:32:00,35.8,35.8,30.34,NE,38,0.0,0.0,100,0.00,,CLR,0.00,VWS V12.08,2013-09-17 06:32:00,
2013-09-17 02:37:00,35.6,35.6,30.34,NE,38,0.0,1.0,100,0.00,,CLR,0.00,VWS V12.08,2013-09-17 06:37:00,
2013-09-17 02:42:00,35.6,35.6,30.35,NE,38,0.0,0.0,100,0.00,,FEW043,0.00,VWS V12.08,2013-09-17 06:42:00,
2013-09-17 02:47:00,35.6,35.6,30.35,NE,38,0.0,0.0,100,0.00,,FEW043,0.00,VWS V12.08,2013-09-17 06:47:00,
2013-09-17 02:52:00,35.6,35.6,30.35,NE,38,0.0,0.0,100,0.00,,FEW043,0.00,VWS V12.08,2013-09-17 06:52:00,
2013-09-17 02:57:00,35.5,35.5,30.35,NE,38,0.0,0.0,100,0.00,,FEW043,0.00,VWS V12.08,2013-09-17 06:57:00,
2013-09-17 03:02:00,35.5,35.5,30.35,NE,38,0.0,0.0,100,0.00,,,0.00,VWS V12.08,2013-09-17 07:02:00,
2013-09-17 03:07:00,35.3,35.3,30.35,NE,38,0.0,0.0,100,0.00,,,0.00,VWS V12.08,2013-09-17 07:07:00,
2013-09-17 03:12:00,35.3,35.3,30.35,NE,38,0.0,0.0,100,0.00,,,0.00,VWS V12.08,2013-09-17 07:12:00,
2013-09-17 03:17:00,35.3,35.3,30.35,NE,38,0.0,0.0,100,0.00,,,0.00,VWS V12.08,2013-09-17 07:17:00,
2013-09-17 03:22:00,35.3,35.3,30.35,NE,38,0.0,0.0,100,0.00,,,0.00,VWS V12.08,2013-09-17 07:22:00,
2013-09-17 03:27:00,35.3,35.3,30.36,NE,38,0.0,0.0,100,0.00,,,0.00,VWS V12.08,2013-09-17 07:27:00,
2013-09-17 03:32:00,35.3,35.3,30.36,NE,38,0.0,0.0,100,0.00,,,0.00,VWS V12.08,2013-09-17 07:32:00,
2013-09-17 03:37:00,35.3,35.3,30.36,NE,38,0.0,0.0,100,0.00,,,0.00,VWS V12.08,2013-09-17 07:37:00,
2013-09-17 03:42:00,35.3,35.3,30.36,NE,38,0.0,0.0,100,0.00,,SCT001,0.00,VWS V12.08,2013-09-17 07:42:00,
2013-09-17 03:47:00,35.3,35.3,30.36,NE,38,1.0,2.0,100,0.00,,SCT001,0.00,VWS V12.08,2013-09-17 07:47:00,
2013-09-17 03:52:00,35.3,35.3,30.36,NE,38,0.0,0.0,100,0.00,,SCT001,0.00,VWS V12.08,2013-09-17 07:52:00,
2013-09-17 03:57:00,35.3,35.3,30.36,NE,38,0.0,0.0,100,0.00,,SCT001,0.00,VWS V12.08,2013-09-17 07:57:00,
2013-09-17 04:02:00,35.3,35.3,30.36,NE,38,0.0,0.0,100,0.00,,SCT001,0.00,VWS V12.08,2013-09-17 08:02:00,
2013-09-17 04:07:00,35.2,35.2,30.36,NE,38,0.0,0.0,100,0.00,,SCT001,0.00,VWS V12.08,2013-09-17 08:07:00,
2013-09-17 04:12:00,35.0,35.0,30.36,NE,38,1.0,2.0,100,0.00,,SCT001,0.00,VWS V12.08,2013-09-17 08:12:00,
2013-09-17 04:17:00,34.9,34.9,30.36,NE,38,2.0,2.0,100,0.00,,SCT001,0.00,VWS V12.08,2013-09-17 08:17:00,
2013-09-17 04:22:00,34.7,34.7,30.36,NE,38,3.0,3.0,100,0.00,,SCT001,0.00,VWS V12.08,2013-09-17 08:22:00,
2013-09-17 04:27:00,34.6,34.6,30.36,NE,37,1.0,2.0,100,0.00,,SCT001,0.00,VWS V12.08,2013-09-17 08:27:00,
2013-09-17 04:32:00,34.4,34.4,30.36,NE,38,0.0,0.0,100,0.00,,SCT001,0.00,VWS V12.08,2013-09-17 08:32:00,
2013-09-17 04:37:00,34.4,34.4,30.36,NE,38,0.0,0.0,100,0.00,,SCT001,0.00,VWS V12.08,2013-09-17 08:37:00,
2013-09-17 04:42:00,34.4,34.4,30.37,NE,38,0.0,0.0,100,0.00,,,0.00,VWS V12.08,2013-09-17 08:42:00,
2013-09-17 04:47:00,34.4,34.4,30.37,NE,38,0.0,0.0,100,0.00,,,0.00,VWS V12.08,2013-09-17 08:47:00,
2013-09-17 04:52:00,34.3,34.3,30.37,NE,38,0.0,2.0,100,0.00,,,0.00,VWS V12.08,2013-09-17 08:52:00,
2013-09-17 04:57:00,34.3,34.3,30.37,NE,38,0.0,0.0,100,0.00,,,0.00,VWS V12.08,2013-09-17 08:57:00,
2013-09-17 05:02:00,34.1,34.1,30.37,NE,38,2.0,2.0,100,0.00,,,0.00,VWS V12.08,2013-09-17 09:02:00,
2013-09-17 05:07:00,34.1,34.1,30.37,NE,49,2.0,2.0,100,0.00,,,0.00,VWS V12.08,2013-09-17 09:07:00,
2013-09-17 05:12:00,34.1,34.1,30.38,NE,49,1.0,2.0,100,0.00,,,0.00,VWS V12.08,2013-09-17 09:12:00,
2013-09-17 05:17:00,34.1,34.1,30.38,NE,49,1.0,1.0,100,0.00,,,0.00,VWS V12.08,2013-09-17 09:17:00,
2013-09-17 05:22:00,34.1,34.1,30.38,NE,49,1.0,2.0,100,0.00,,,0.00,VWS V12.08,2013-09-17 09:22:00,
2013-09-17 05:27:00,34.1,34.1,30.38,NE,49,2.0,3.0,100,0.00,,,0.00,VWS V12.08,2013-09-17 09:27:00,
2013-09-17 05:33:00,34.1,34.1,30.38,NE,49,0.0,0.0,100,0.00,,,0.00,VWS V12.08,2013-09-17 09:33:00,
2013-09-17 05:38:00,34.1,34.1,30.38,NE,49,0.0,1.0,100,0.00,,,0.00,VWS V12.08,2013-09-17 09:38:00,
2013-09-17 05:43:00,34.0,34.0,30.39,NE,49,0.0,0.0,100,0.00,,,0.00,VWS V12.08,2013-09-17 09:43:00,
2013-09-17 05:48:00,34.0,34.0,30.39,NE,49,0.0,0.0,100,0.00,,,0.00,VWS V12.08,2013-09-17 09:48:00,
2013-09-17 05:53:00,34.1,34.1,30.39,NE,49,0.0,0.0,100,0.00,,,0.00,VWS V12.08,2013-09-17 09:53:00,
2013-09-17 05:58:00,34.1,34.1,30.40,NE,49,0.0,1.0,100,0.00,,,0.00,VWS V12.08,2013-09-17 09:58:00,
2013-09-17 06:03:00,34.1,34.1,30.40,NE,49,0.0,0.0,100,0.00,,,0.00,VWS V12.08,2013-09-17 10:03:00,
2013-09-17 06:08:00,34.1,34.1,30.40,NE,49,0.0,0.0,100,0.00,,,0.00,VWS V12.08,2013-09-17 10:08:00,
2013-09-17 06:13:00,34.1,34.1,30.40,NE,49,0.0,0.0,100,0.00,,,0.00,VWS V12.08,2013-09-17 10:13:00,
2013-09-17 06:18:00,34.1,34.1,30.40,NE,49,0.0,0.0,100,0.00,,,0.00,VWS V12.08,2013-09-17 10:18:00,
2013-09-17 06:23:00,34.1,34.1,30.40,NE,49,0.0,0.0,100,0.00,,,0.00,VWS V12.08,2013-09-17 10:23:00,
2013-09-17 06:28:00,34.1,34.1,30.41,NE,49,0.0,0.0,100,0.00,,,0.00,VWS V12.08,2013-09-17 10:28:00,
2013-09-17 06:33:00,34.1,34.1,30.41,NE,49,0.0,0.0,100,0.00,,,0.00,VWS V12.08,2013-09-17 10:33:00,
2013-09-17 06:38:00,34.0,34.0,30.41,NE,49,0.0,0.0,100,0.00,,,0.00,VWS V12.08,2013-09-17 10:38:00,
2013-09-17 06:43:00,34.0,34.0,30.42,NE,49,0.0,0.0,100,0.00,,,0.00,VWS V12.08,2013-09-17 10:43:00,
2013-09-17 06:48:00,34.0,34.0,30.42,NE,49,0.0,0.0,100,0.00,,,0.00,VWS V12.08,2013-09-17 10:48:00,
2013-09-17 06:53:00,34.0,34.0,30.42,NE,49,0.0,0.0,100,0.00,,,0.00,VWS V12.08,2013-09-17 10:53:00,
2013-09-17 06:58:00,34.1,34.1,30.43,NE,49,0.0,0.0,100,0.00,,,0.00,VWS V12.08,2013-09-17 10:58:00,
2013-09-17 07:03:00,34.0,34.0,30.43,NE,49,0.0,0.0,100,0.00,,SCT001,0.00,VWS V12.08,2013-09-17 11:03:00,
2013-09-17 07:08:00,34.0,34.0,30.43,NE,49,0.0,0.0,100,0.00,,SCT001,0.00,VWS V12.08,2013-09-17 11:08:00,
2013-09-17 07:13:00,34.0,34.0,30.43,NE,49,0.0,0.0,100,0.00,,SCT001,0.00,VWS V12.08,2013-09-17 11:13:00,
2013-09-17 07:18:00,34.1,34.1,30.43,NE,49,0.0,0.0,100,0.00,,SCT001,0.00,VWS V12.08,2013-09-17 11:18:00,
2013-09-17 07:23:00,34.0,34.0,30.43,NE,49,0.0,0.0,100,0.00,,SCT001,0.00,VWS V12.08,2013-09-17 11:23:00,
2013-09-17 07:28:00,34.0,34.0,30.43,NE,49,0.0,0.0,100,0.00,,SCT001,0.00,VWS V12.08,2013-09-17 11:28:00,
2013-09-17 07:33:00,34.1,34.1,30.43,NE,49,0.0,0.0,100,0.00,,SCT001,0.00,VWS V12.08,2013-09-17 11:33:00,
2013-09-17 07:38:00,34.1,34.1,30.43,NE,49,0.0,0.0,100,0.00,,SCT001,0.00,VWS V12.08,2013-09-17 11:38:00,
2013-09-17 07:43:00,34.3,34.3,30.44,NE,49,0.0,2.0,100,0.00,,CLR,0.00,VWS V12.08,2013-09-17 11:43:00,
2013-09-17 07:48:00,34.4,34.4,30.44,NE,49,0.0,2.0,100,0.00,,CLR,0.00,VWS V12.08,2013-09-17 11:48:00,
2013-09-17 07:53:00,34.6,34.6,30.44,NE,49,0.0,0.0,100,0.00,,CLR,0.00,VWS V12.08,2013-09-17 11:53:00,
2013-09-17 07:58:00,34.6,34.6,30.44,NE,49,0.0,0.0,100,0.00,,CLR,0.00,VWS V12.08,2013-09-17 11:58:00,
2013-09-17 08:03:00,34.6,34.6,30.44,NE,49,0.0,0.0,100,0.00,,CLR,0.00,VWS V12.08,2013-09-17 12:03:00,
2013-09-17 08:08:00,34.7,34.7,30.44,NE,49,0.0,0.0,100,0.00,,CLR,0.00,VWS V12.08,2013-09-17 12:08:00,
2013-09-17 08:13:00,34.9,34.9,30.44,NE,49,0.0,0.0,100,0.00,,CLR,0.00,VWS V12.08,2013-09-17 12:13:00,
2013-09-17 08:18:00,34.9,34.9,30.44,NE,49,0.0,0.0,100,0.00,,CLR,0.00,VWS V12.08,2013-09-17 12:18:00,
2013-09-17 08:23:00,35.0,35.0,30.44,NE,49,0.0,0.0,100,0.00,,CLR,0.00,VWS V12.08,2013-09-17 12:23:00,
2013-09-17 08:28:00,35.0,35.0,30.45,NE,49,0.0,0.0,100,0.00,,CLR,0.00,VWS V12.08,2013-09-17 12:28:00,
2013-09-17 08:33:00,35.3,35.3,30.45,NE,49,0.0,0.0,100,0.00,,CLR,0.00,VWS V12.08,2013-09-17 12:33:00,
2013-09-17 08:38:00,35.5,35.5,30.45,NE,49,0.0,0.0,100,0.00,,CLR,0.00,VWS V12.08,2013-09-17 12:38:00,
2013-09-17 08:43:00,35.9,35.9,30.46,NE,49,0.0,0.0,100,0.00,,CLR,0.00,VWS V12.08,2013-09-17 12:43:00,
2013-09-17 08:48:00,36.0,36.0,30.46,NE,49,0.0,0.0,100,0.00,,CLR,0.00,VWS V12.08,2013-09-17 12:48:00,
2013-09-17 08:53:00,36.3,36.3,30.46,NE,49,0.0,0.0,100,0.00,,CLR,0.00,VWS V12.08,2013-09-17 12:53:00,
2013-09-17 08:58:00,36.6,36.6,30.46,NE,49,0.0,0.0,100,0.00,,CLR,0.00,VWS V12.08,2013-09-17 12:58:00,
2013-09-17 09:03:00,37.5,37.5,30.46,NE,49,0.0,0.0,100,0.00,,CLR,0.00,VWS V12.08,2013-09-17 13:03:00,
2013-09-17 09:08:00,37.9,37.9,30.46,NE,49,0.0,0.0,100,0.00,,CLR,0.00,VWS V12.08,2013-09-17 13:08:00,
2013-09-17 09:13:00,38.8,38.8,30.46,NE,49,0.0,0.0,100,0.00,,CLR,0.00,VWS V12.08,2013-09-17 13:13:00,
2013-09-17 09:18:00,39.6,39.6,30.46,NE,49,0.0,0.0,100,0.00,,CLR,0.00,VWS V12.08,2013-09-17 13:18:00,
2013-09-17 09:23:00,40.1,40.1,30.46,NE,49,2.0,2.0,100,0.00,,CLR,0.00,VWS V12.08,2013-09-17 13:23:00,
2013-09-17 09:28:00,40.3,40.3,30.46,NE,49,2.0,3.0,100,0.00,,CLR,0.00,VWS V12.08,2013-09-17 13:28:00,
2013-09-17 09:33:00,40.6,40.6,30.46,NE,49,0.0,2.0,100,0.00,,CLR,0.00,VWS V12.08,2013-09-17 13:33:00,
2013-09-17 09:38:00,41.2,41.2,30.46,ESE,104,0.0,2.0,100,0.00,,CLR,0.00,VWS V12.08,2013-09-17 13:38:00,
2013-09-17 09:43:00,42.5,42.5,30.46,ESE,104,3.0,3.0,100,0.00,,CLR,0.00,VWS V12.08,2013-09-17 13:43:00,
2013-09-17 09:48:00,43.5,43.5,30.46,ESE,104,0.0,0.0,100,0.00,,CLR,0.00,VWS V12.08,2013-09-17 13:48:00,
2013-09-17 09:53:00,44.9,44.9,30.46,ESE,104,0.0,0.0,100,0.00,,CLR,0.00,VWS V12.08,2013-09-17 13:53:00,
2013-09-17 09:58:00,46.1,45.6,30.45,ESE,104,0.0,1.0,98,0.00,,CLR,0.00,VWS V12.08,2013-09-17 13:58:00,
2013-09-17 10:03:00,47.1,45.2,30.45,ESE,104,0.0,0.0,93,0.00,,CLR,0.00,VWS V12.08,2013-09-17 14:03:00,
2013-09-17 10:08:00,48.3,44.9,30.45,ESE,104,1.0,1.0,88,0.00,,CLR,0.00,VWS V12.08,2013-09-17 14:08:00,
2013-09-17 10:13:00,49.2,43.0,30.45,ESE,103,0.0,2.0,79,0.00,,CLR,0.00,VWS V12.08,2013-09-17 14:13:00,
2013-09-17 10:18:00,50.1,43.5,30.45,ESE,103,0.0,2.0,78,0.00,,CLR,0.00,VWS V12.08,2013-09-17 14:18:00,
2013-09-17 10:23:00,51.3,42.6,30.45,ESE,103,0.0,0.0,72,0.00,,CLR,0.00,VWS V12.08,2013-09-17 14:23:00,
2013-09-17 10:28:00,51.1,41.7,30.44,ESE,103,1.0,2.0,70,0.00,,CLR,0.00,VWS V12.08,2013-09-17 14:28:00,
2013-09-17 10:33:00,51.1,41.3,30.44,ESE,109,2.0,3.0,69,0.00,,CLR,0.00,VWS V12.08,2013-09-17 14:33:00,
2013-09-17 10:38:00,52.2,41.6,30.44,SSE,151,0.0,2.0,67,0.00,,CLR,0.00,VWS V12.08,2013-09-17 14:38:00,
2013-09-17 10:43:00,53.3,43.0,30.44,SE,137,1.0,2.0,68,0.00,,CLR,0.00,VWS V12.08,2013-09-17 14:43:00,
2013-09-17 10:48:00,53.5,42.4,30.44,South,188,1.0,3.0,66,0.00,,CLR,0.00,VWS V12.08,2013-09-17 14:48:00,
2013-09-17 10:53:00,54.2,41.9,30.44,ESE,110,2.0,3.0,63,0.00,,CLR,0.00,VWS V12.08,2013-09-17 14:53:00,
2013-09-17 10:58:00,54.8,42.5,30.44,ENE,69,5.0,6.0,63,0.00,,CLR,0.00,VWS V12.08,2013-09-17 14:58:00,
2013-09-17 11:03:00,55.1,42.3,30.44,ENE,69,1.0,3.0,62,0.00,,CLR,0.00,VWS V12.08,2013-09-17 15:03:00,
2013-09-17 11:08:00,54.8,42.0,30.44,South,174,0.0,0.0,62,0.00,,CLR,0.00,VWS V12.08,2013-09-17 15:08:00,
2013-09-17 11:13:00,55.3,43.3,30.43,South,174,0.0,0.0,64,0.00,,CLR,0.00,VWS V12.08,2013-09-17 15:13:00,
2013-09-17 11:18:00,56.0,44.0,30.43,ESE,117,0.0,1.0,64,0.00,,CLR,0.00,VWS V12.08,2013-09-17 15:18:00,
2013-09-17 11:23:00,56.6,42.5,30.43,East,96,2.0,3.0,59,0.00,,CLR,0.00,VWS V12.08,2013-09-17 15:23:00,
2013-09-17 11:28:00,56.6,41.1,30.43,East,93,1.0,3.0,56,0.00,,CLR,0.00,VWS V12.08,2013-09-17 15:28:00,
2013-09-17 11:33:00,56.7,42.5,30.43,ENE,73,3.0,6.0,59,0.00,,CLR,0.00,VWS V12.08,2013-09-17 15:33:00,
2013-09-17 11:38:00,57.0,41.9,30.43,ESE,106,4.0,5.0,57,0.00,,CLR,0.00,VWS V12.08,2013-09-17 15:38:00,
2013-09-17 11:43:00,57.3,41.8,30.42,ENE,68,2.0,7.0,56,0.00,,CLR,0.00,VWS V12.08,2013-09-17 15:43:00,
2013-09-17 11:48:00,57.6,41.6,30.42,East,86,1.0,7.0,55,0.00,,CLR,0.00,VWS V12.08,2013-09-17 15:48:00,
2013-09-17 11:53:00,58.3,41.3,30.42,ENE,78,0.0,3.0,53,0.00,,CLR,0.00,VWS V12.08,2013-09-17 15:53:00,
2013-09-17 11:58:00,58.6,43.0,30.42,ENE,76,6.0,7.0,56,0.00,,CLR,0.00,VWS V12.08,2013-09-17 15:58:00,
2013-09-17 12:03:00,58.7,41.6,30.42,ENE,76,7.0,7.0,53,0.00,,CLR,0.00,VWS V12.08,2013-09-17 16:03:00,
2013-09-17 12:09:00,58.6,41.0,30.42,ENE,69,0.0,5.0,52,0.00,,CLR,0.00,VWS V12.08,2013-09-17 16:09:00,
2013-09-17 12:14:00,58.9,42.3,30.42,ENE,71,2.0,7.0,54,0.00,,CLR,0.00,VWS V12.08,2013-09-17 16:14:00,
2013-09-17 12:19:00,59.3,42.2,30.42,ENE,73,6.0,7.0,53,0.00,,CLR,0.00,VWS V12.08,2013-09-17 16:19:00,
2013-09-17 12:24:00,59.0,41.9,30.42,East,96,5.0,8.0,53,0.00,,CLR,0.00,VWS V12.08,2013-09-17 16:24:00,
2013-09-17 12:29:00,59.5,42.9,30.41,ENE,73,2.0,6.0,54,0.00,,CLR,0.00,VWS V12.08,2013-09-17 16:29:00,
2013-09-17 12:34:00,59.5,41.4,30.41,ENE,72,0.0,1.0,51,0.00,,CLR,0.00,VWS V12.08,2013-09-17 16:34:00,
2013-09-17 12:39:00,59.9,44.7,30.41,East,80,1.0,1.0,57,0.00,,CLR,0.00,VWS V12.08,2013-09-17 16:39:00,
2013-09-17 12:44:00,60.4,42.7,30.41,ENE,64,5.0,8.0,52,0.00,,CLR,0.00,VWS V12.08,2013-09-17 16:44:00,
2013-09-17 12:49:00,61.0,43.8,30.41,ENE,75,7.0,7.0,53,0.00,,CLR,0.00,VWS V12.08,2013-09-17 16:49:00,
2013-09-17 12:54:00,61.2,43.0,30.41,ENE,64,1.0,5.0,51,0.00,,CLR,0.00,VWS V12.08,2013-09-17 16:54:00,
2013-09-17 12:59:00,60.9,42.7,30.40,SE,124,5.0,8.0,51,0.00,,CLR,0.00,VWS V12.08,2013-09-17 16:59:00,
2013-09-17 13:04:00,59.9,40.7,30.40,SSW,195,0.0,2.0,49,0.00,,CLR,0.00,VWS V12.08,2013-09-17 17:04:00,
2013-09-17 13:09:00,60.1,40.9,30.40,SSW,195,2.0,2.0,49,0.00,,CLR,0.00,VWS V12.08,2013-09-17 17:09:00,
2013-09-17 13:14:00,60.4,41.7,30.39,SE,128,1.0,2.0,50,0.00,,CLR,0.00,VWS V12.08,2013-09-17 17:14:00,
2013-09-17 13:19:00,60.4,43.2,30.39,ENE,68,4.0,6.0,53,0.00,,CLR,0.00,VWS V12.08,2013-09-17 17:19:00,
2013-09-17 13:24:00,61.2,43.0,30.39,ENE,78,2.0,3.0,51,0.00,,CLR,0.00,VWS V12.08,2013-09-17 17:24:00,
2013-09-17 13:29:00,61.0,40.7,30.39,ENE,78,2.0,3.0,47,0.00,,CLR,0.00,VWS V12.08,2013-09-17 17:29:00,
2013-09-17 13:34:00,60.7,43.0,30.39,SSW,203,0.0,1.0,52,0.00,,CLR,0.00,VWS V12.08,2013-09-17 17:34:00,
2013-09-17 13:39:00,61.0,41.7,30.39,ENE,73,2.0,6.0,49,0.00,,CLR,0.00,VWS V12.08,2013-09-17 17:39:00,
2013-09-17 13:44:00,61.2,41.9,30.38,ENE,73,2.0,7.0,49,0.00,,CLR,0.00,VWS V12.08,2013-09-17 17:44:00,
2013-09-17 13:49:00,61.6,41.7,30.38,ENE,72,3.0,6.0,48,0.00,,CLR,0.00,VWS V12.08,2013-09-17 17:49:00,
2013-09-17 13:54:00,61.8,42.5,30.38,NE,56,3.0,10.0,49,0.00,,CLR,0.00,VWS V12.08,2013-09-17 17:54:00,
2013-09-17 13:59:00,62.0,42.6,30.37,East,80,2.0,3.0,49,0.00,,CLR,0.00,VWS V12.08,2013-09-17 17:59:00,
2013-09-17 14:04:00,62.4,42.5,30.37,ENE,76,3.0,6.0,48,0.00,,CLR,0.00,VWS V12.08,2013-09-17 18:04:00,
2013-09-17 14:09:00,62.7,41.1,30.37,ENE,73,2.0,6.0,45,0.00,,CLR,0.00,VWS V12.08,2013-09-17 18:09:00,
2013-09-17 14:14:00,62.6,42.1,30.37,NE,51,6.0,8.0,47,0.00,,CLR,0.00,VWS V12.08,2013-09-17 18:14:00,
2013-09-17 14:19:00,62.3,42.9,30.37,ENE,78,0.0,0.0,49,0.00,,CLR,0.00,VWS V12.08,2013-09-17 18:19:00,
2013-09-17 14:24:00,62.4,41.9,30.37,East,79,3.0,5.0,47,0.00,,CLR,0.00,VWS V12.08,2013-09-17 18:24:00,
2013-09-17 14:29:00,62.6,41.5,30.36,ENE,71,0.0,0.0,46,0.00,,CLR,0.00,VWS V12.08,2013-09-17 18:29:00,
2013-09-17 14:34:00,62.0,40.4,30.36,East,100,2.0,4.0,45,0.00,,CLR,0.00,VWS V12.08,2013-09-17 18:34:00,
2013-09-17 14:39:00,62.0,40.4,30.36,ENE,76,1.0,5.0,45,0.00,,CLR,0.00,VWS V12.08,2013-09-17 18:39:00,
2013-09-17 14:44:00,62.6,41.5,30.35,ENE,76,2.0,3.0,46,0.00,,CLR,0.00,VWS V12.08,2013-09-17 18:44:00,
2013-09-17 14:49:00,63.1,42.6,30.35,ENE,61,7.0,7.0,47,0.00,,CLR,0.00,VWS V12.08,2013-09-17 18:49:00,
2013-09-17 14:54:00,63.1,41.4,30.35,East,85,2.0,4.0,45,0.00,,CLR,0.00,VWS V12.08,2013-09-17 18:54:00,
2013-09-17 14:59:00,62.7,40.5,30.35,East,85,3.0,6.0,44,0.00,,CLR,0.00,VWS V12.08,2013-09-17 18:59:00,
2013-09-17 15:04:00,62.6,41.0,30.35,East,83,5.0,5.0,45,0.00,,CLR,0.00,VWS V12.08,2013-09-17 19:04:00,
2013-09-17 15:09:00,62.3,40.7,30.35,ENE,76,0.0,2.0,45,0.00,,CLR,0.00,VWS V12.08,2013-09-17 19:09:00,
2013-09-17 15:14:00,62.0,40.4,30.34,ENE,78,0.0,1.0,45,0.00,,CLR,0.00,VWS V12.08,2013-09-17 19:14:00,
2013-09-17 15:19:00,62.0,41.0,30.34,ESE,110,3.0,3.0,46,0.00,,CLR,0.00,VWS V12.08,2013-09-17 19:19:00,
2013-09-17 15:24:00,61.8,40.8,30.34,ESE,104,2.0,5.0,46,0.00,,CLR,0.00,VWS V12.08,2013-09-17 19:24:00,
2013-09-17 15:29:00,61.8,41.9,30.34,ENE,68,0.0,2.0,48,0.00,,CLR,0.00,VWS V12.08,2013-09-17 19:29:00,
2013-09-17 15:34:00,61.8,41.4,30.34,ENE,68,0.0,2.0,47,0.00,,CLR,0.00,VWS V12.08,2013-09-17 19:34:00,
2013-09-17 15:39:00,61.8,41.4,30.34,NE,49,2.0,6.0,47,0.00,,CLR,0.00,VWS V12.08,2013-09-17 19:39:00,
2013-09-17 15:44:00,61.8,41.9,30.33,NE,49,0.0,0.0,48,0.00,,FEW055,0.00,VWS V12.08,2013-09-17 19:44:00,
2013-09-17 15:49:00,62.0,43.2,30.33,ESE,102,2.0,3.0,50,0.00,,FEW055,0.00,VWS V12.08,2013-09-17 19:49:00,
2013-09-17 15:54:00,62.0,41.6,30.33,ESE,102,0.0,0.0,47,0.00,,FEW055,0.00,VWS V12.08,2013-09-17 19:54:00,
2013-09-17 15:59:00,62.0,41.0,30.33,ESE,102,0.0,0.0,46,0.00,,FEW055,0.00,VWS V12.08,2013-09-17 19:59:00,
2013-09-17 16:04:00,62.0,42.1,30.33,East,96,2.0,2.0,48,0.00,,FEW055,0.00,VWS V12.08,2013-09-17 20:04:00,
2013-09-17 16:09:00,61.8,41.4,30.33,East,96,0.0,1.0,47,0.00,,FEW055,0.00,VWS V12.08,2013-09-17 20:09:00,
2013-09-17 16:14:00,61.8,41.9,30.33,ESE,119,0.0,0.0,48,0.00,,FEW055,0.00,VWS V12.08,2013-09-17 20:14:00,
2013-09-17 16:19:00,61.6,41.7,30.33,East,85,2.0,4.0,48,0.00,,FEW055,0.00,VWS V12.08,2013-09-17 20:19:00,
2013-09-17 16:24:00,61.5,41.7,30.33,East,85,0.0,0.0,48,0.00,,FEW055,0.00,VWS V12.08,2013-09-17 20:24:00,
2013-09-17 16:29:00,61.5,41.7,30.32,East,95,3.0,3.0,48,0.00,,FEW055,0.00,VWS V12.08,2013-09-17 20:29:00,
2013-09-17 16:34:00,61.3,38.6,30.32,East,89,0.0,2.0,43,0.00,,FEW055,0.00,VWS V12.08,2013-09-17 20:34:00,
2013-09-17 16:39:00,61.3,40.9,30.32,ENE,73,3.0,6.0,47,0.00,,FEW055,0.00,VWS V12.08,2013-09-17 20:39:00,
2013-09-17 16:45:00,61.2,38.5,30.33,ENE,68,2.0,4.0,43,0.00,,CLR,0.00,VWS V12.08,2013-09-17 20:45:00,
2013-09-17 16:50:00,61.2,39.7,30.33,ENE,68,0.0,1.0,45,0.00,,CLR,0.00,VWS V12.08,2013-09-17 20:50:00,
2013-09-17 16:55:00,61.2,40.8,30.33,ENE,68,2.0,2.0,47,0.00,,CLR,0.00,VWS V12.08,2013-09-17 20:55:00,
2013-09-17 17:00:00,61.2,40.8,30.32,ENE,68,0.0,0.0,47,0.00,,CLR,0.00,VWS V12.08,2013-09-17 21:00:00,
2013-09-17 17:05:00,61.0,41.2,30.32,ENE,68,0.0,2.0,48,0.00,,CLR,0.00,VWS V12.08,2013-09-17 21:05:00,
2013-09-17 17:10:00,60.9,41.1,30.32,ENE,68,0.0,1.0,48,0.00,,CLR,0.00,VWS V12.08,2013-09-17 21:10:00,
2013-09-17 17:15:00,60.7,40.9,30.32,ENE,68,0.0,0.0,48,0.00,,CLR,0.00,VWS V12.08,2013-09-17 21:15:00,
2013-09-17 17:20:00,60.7,43.5,30.32,ENE,68,0.0,0.0,53,0.00,,CLR,0.00,VWS V12.08,2013-09-17 21:20:00,
2013-09-17 17:25:00,60.5,44.3,30.32,ENE,68,0.0,0.0,55,0.00,,CLR,0.00,VWS V12.08,2013-09-17 21:25:00,
2013-09-17 17:30:00,60.1,47.0,30.32,ENE,68,0.0,0.0,62,0.00,,CLR,0.00,VWS V12.08,2013-09-17 21:30:00,
2013-09-17 17:35:00,59.5,48.2,30.32,ENE,68,0.0,0.0,66,0.00,,CLR,0.00,VWS V12.08,2013-09-17 21:35:00,
2013-09-17 17:40:00,58.7,47.8,30.32,ENE,68,0.0,0.0,67,0.00,,CLR,0.00,VWS V12.08,2013-09-17 21:40:00,
2013-09-17 17:45:00,58.0,47.9,30.31,ENE,68,0.0,0.0,69,0.00,,CLR,0.00,VWS V12.08,2013-09-17 21:45:00,
2013-09-17 17:50:00,57.2,47.9,30.31,ENE,68,0.0,0.0,71,0.00,,CLR,0.00,VWS V12.08,2013-09-17 21:50:00,
2013-09-17 17:55:00,56.6,48.1,30.31,ENE,68,0.0,0.0,73,0.00,,CLR,0.00,VWS V12.08,2013-09-17 21:55:00,
2013-09-17 18:00:00,55.9,48.1,30.31,ENE,68,0.0,0.0,75,0.00,,CLR,0.00,VWS V12.08,2013-09-17 22:00:00,
2013-09-17 18:05:00,55.3,47.9,30.31,ENE,68,0.0,0.0,76,0.00,,CLR,0.00,VWS V12.08,2013-09-17 22:05:00,
2013-09-17 18:10:00,55.0,48.3,30.31,ENE,68,0.0,0.0,78,0.00,,CLR,0.00,VWS V12.08,2013-09-17 22:10:00,
2013-09-17 18:15:00,54.5,48.5,30.32,ENE,68,0.0,0.0,80,0.00,,CLR,0.00,VWS V12.08,2013-09-17 22:15:00,
2013-09-17 18:20:00,53.9,48.2,30.32,ENE,68,0.0,0.0,81,0.00,,CLR,0.00,VWS V12.08,2013-09-17 22:20:00,
2013-09-17 18:25:00,53.6,48.6,30.32,ENE,68,0.0,0.0,83,0.00,,CLR,0.00,VWS V12.08,2013-09-17 22:25:00,
2013-09-17 18:30:00,53.3,48.6,30.31,ENE,68,0.0,0.0,84,0.00,,CLR,0.00,VWS V12.08,2013-09-17 22:30:00,
2013-09-17 18:35:00,53.1,48.7,30.31,ENE,68,0.0,0.0,85,0.00,,CLR,0.00,VWS V12.08,2013-09-17 22:35:00,
2013-09-17 18:40:00,52.8,48.7,30.31,ENE,68,0.0,0.0,86,0.00,,CLR,0.00,VWS V12.08,2013-09-17 22:40:00,
2013-09-17 18:45:00,52.3,48.2,30.32,ENE,68,0.0,0.0,86,0.00,,CLR,0.00,VWS V12.08,2013-09-17 22:45:00,
2013-09-17 18:50:00,52.0,48.3,30.32,ENE,68,0.0,0.0,87,0.00,,CLR,0.00,VWS V12.08,2013-09-17 22:50:00,
2013-09-17 18:55:00,51.7,48.3,30.32,ENE,68,0.0,0.0,88,0.00,,CLR,0.00,VWS V12.08,2013-09-17 22:55:00,
2013-09-17 19:00:00,51.4,48.3,30.32,ENE,68,0.0,0.0,89,0.00,,CLR,0.00,VWS V12.08,2013-09-17 23:00:00,
2013-09-17 19:05:00,51.1,48.3,30.32,ENE,68,0.0,0.0,90,0.00,,CLR,0.00,VWS V12.08,2013-09-17 23:05:00,
2013-09-17 19:10:00,50.7,48.2,30.32,ENE,68,0.0,0.0,91,0.00,,CLR,0.00,VWS V12.08,2013-09-17 23:10:00,
2013-09-17 19:15:00,50.4,47.9,30.32,ENE,68,0.0,0.0,91,0.00,,CLR,0.00,VWS V12.08,2013-09-17 23:15:00,
2013-09-17 19:20:00,49.9,47.7,30.32,ENE,68,0.0,0.0,92,0.00,,CLR,0.00,VWS V12.08,2013-09-17 23:20:00,
2013-09-17 19:25:00,49.8,47.9,30.32,ENE,68,0.0,0.0,93,0.00,,CLR,0.00,VWS V12.08,2013-09-17 23:25:00,
2013-09-17 19:30:00,49.5,47.6,30.32,ENE,68,0.0,0.0,93,0.00,,CLR,0.00,VWS V12.08,2013-09-17 23:30:00,
2013-09-17 19:35:00,49.2,47.5,30.32,ENE,68,0.0,0.0,94,0.00,,CLR,0.00,VWS V12.08,2013-09-17 23:35:00,
2013-09-17 19:40:00,48.9,47.2,30.32,ENE,68,0.0,0.0,94,0.00,,CLR,0.00,VWS V12.08,2013-09-17 23:40:00,
2013-09-17 19:45:00,48.8,47.4,30.33,ENE,68,0.0,0.0,95,0.00,,CLR,0.00,VWS V12.08,2013-09-17 23:45:00,
2013-09-17 19:50:00,48.5,47.1,30.33,ENE,68,0.0,0.0,95,0.00,,CLR,0.00,VWS V12.08,2013-09-17 23:50:00,
2013-09-17 19:55:00,48.2,47.1,30.33,ENE,68,0.0,0.0,96,0.00,,CLR,0.00,VWS V12.08,2013-09-17 23:55:00,
2013-09-17 20:00:00,48.0,46.9,30.33,ENE,68,0.0,0.0,96,0.00,,CLR,0.00,VWS V12.08,2013-09-18 00:00:00,
2013-09-17 20:05:00,47.9,46.8,30.33,ENE,68,0.0,0.0,96,0.00,,CLR,0.00,VWS V12.08,2013-09-18 00:05:00,
2013-09-17 20:10:00,47.6,46.8,30.33,ENE,68,0.0,0.0,97,0.00,,CLR,0.00,VWS V12.08,2013-09-18 00:10:00,
2013-09-17 20:15:00,47.4,46.6,30.33,ENE,68,0.0,0.0,97,0.00,,CLR,0.00,VWS V12.08,2013-09-18 00:15:00,
2013-09-17 20:20:00,47.3,46.5,30.33,ENE,68,0.0,0.0,97,0.00,,CLR,0.00,VWS V12.08,2013-09-18 00:20:00,
2013-09-17 20:25:00,47.0,46.5,30.33,ENE,68,0.0,0.0,98,0.00,,CLR,0.00,VWS V12.08,2013-09-18 00:25:00,
2013-09-17 20:30:00,46.8,46.3,30.34,ENE,68,0.0,0.0,98,0.00,,CLR,0.00,VWS V12.08,2013-09-18 00:30:00,
2013-09-17 20:35:00,46.5,46.0,30.34,ENE,68,0.0,0.0,98,0.00,,CLR,0.00,VWS V12.08,2013-09-18 00:35:00,
2013-09-17 20:40:00,46.4,45.9,30.34,ENE,68,0.0,0.0,98,0.00,,CLR,0.00,VWS V12.08,2013-09-18 00:40:00,
2013-09-17 20:45:00,46.2,45.9,30.34,ENE,68,0.0,0.0,99,0.00,,CLR,0.00,VWS V12.08,2013-09-18 00:45:00,
2013-09-17 20:50:00,46.1,45.8,30.34,ENE,68,0.0,0.0,99,0.00,,CLR,0.00,VWS V12.08,2013-09-18 00:50:00,
2013-09-17 20:55:00,46.0,45.7,30.34,ENE,68,0.0,0.0,99,0.00,,CLR,0.00,VWS V12.08,2013-09-18 00:55:00,
2013-09-17 21:00:00,45.7,45.4,30.34,ENE,68,0.0,0.0,99,0.00,,CLR,0.00,VWS V12.08,2013-09-18 01:00:00,
2013-09-17 21:05:00,45.5,45.2,30.34,ENE,68,0.0,0.0,99,0.00,,CLR,0.00,VWS V12.08,2013-09-18 01:05:00,
2013-09-17 21:10:00,45.4,45.4,30.34,ENE,68,0.0,0.0,100,0.00,,CLR,0.00,VWS V12.08,2013-09-18 01:10:00,
2013-09-17 21:15:00,45.2,45.2,30.33,ENE,68,0.0,0.0,100,0.00,,CLR,0.00,VWS V12.08,2013-09-18 01:15:00,
2013-09-17 21:21:00,45.1,45.1,30.33,ENE,68,0.0,0.0,100,0.00,,CLR,0.00,VWS V12.08,2013-09-18 01:21:00,
2013-09-17 21:26:00,44.9,44.9,30.33,ENE,68,0.0,0.0,100,0.00,,CLR,0.00,VWS V12.08,2013-09-18 01:26:00,
2013-09-17 21:31:00,44.9,44.9,30.33,ENE,68,0.0,0.0,100,0.00,,CLR,0.00,VWS V12.08,2013-09-18 01:31:00,
2013-09-17 21:36:00,44.6,44.6,30.33,ENE,68,0.0,0.0,100,0.00,,CLR,0.00,VWS V12.08,2013-09-18 01:36:00,
2013-09-17 21:41:00,44.5,44.5,30.33,ENE,68,0.0,0.0,100,0.00,,CLR,0.00,VWS V12.08,2013-09-18 01:41:00,
2013-09-17 21:46:00,44.3,44.3,30.33,ENE,68,0.0,0.0,100,0.00,,CLR,0.00,VWS V12.08,2013-09-18 01:46:00,
2013-09-17 21:51:00,44.2,44.2,30.33,ENE,68,0.0,0.0,100,0.00,,CLR,0.00,VWS V12.08,2013-09-18 01:51:00,
2013-09-17 21:56:00,44.1,44.1,30.33,ENE,68,0.0,0.0,100,0.00,,CLR,0.00,VWS V12.08,2013-09-18 01:56:00,
2013-09-17 22:01:00,43.9,43.9,30.34,ENE,68,0.0,0.0,100,0.00,,CLR,0.00,VWS V12.08,2013-09-18 02:01:00,
2013-09-17 22:06:00,43.8,43.8,30.34,ENE,68,0.0,0.0,100,0.00,,CLR,0.00,VWS V12.08,2013-09-18 02:06:00,
2013-09-17 22:11:00,43.6,43.6,30.34,ENE,68,0.0,0.0,100,0.00,,CLR,0.00,VWS V12.08,2013-09-18 02:11:00,
2013-09-17 22:16:00,43.6,43.6,30.33,ENE,68,0.0,0.0,100,0.00,,CLR,0.00,VWS V12.08,2013-09-18 02:16:00,
2013-09-17 22:21:00,43.5,43.5,30.33,ENE,68,0.0,0.0,100,0.00,,CLR,0.00,VWS V12.08,2013-09-18 02:21:00,
2013-09-17 22:26:00,43.3,43.3,30.33,ENE,68,0.0,0.0,100,0.00,,CLR,0.00,VWS V12.08,2013-09-18 02:26:00,
2013-09-17 22:31:00,43.2,43.2,30.33,ENE,68,0.0,0.0,100,0.00,,CLR,0.00,VWS V12.08,2013-09-18 02:31:00,
2013-09-17 22:36:00,43.1,43.1,30.33,ENE,68,0.0,0.0,100,0.00,,CLR,0.00,VWS V12.08,2013-09-18 02:36:00,
2013-09-17 22:41:00,42.9,42.9,30.33,ENE,68,0.0,0.0,100,0.00,,CLR,0.00,VWS V12.08,2013-09-18 02:41:00,
2013-09-17 22:46:00,42.9,42.9,30.33,ENE,68,0.0,0.0,100,0.00,,CLR,0.00,VWS V12.08,2013-09-18 02:46:00,
2013-09-17 22:51:00,42.8,42.8,30.33,ENE,68,0.0,0.0,100,0.00,,CLR,0.00,VWS V12.08,2013-09-18 02:51:00,
2013-09-17 22:56:00,42.8,42.8,30.33,ENE,68,0.0,0.0,100,0.00,,CLR,0.00,VWS V12.08,2013-09-18 02:56:00,
2013-09-17 23:01:00,42.8,42.8,30.33,ENE,68,0.0,0.0,100,0.00,,CLR,0.00,VWS V12.08,2013-09-18 03:01:00,
2013-09-17 23:06:00,42.6,42.6,30.33,ENE,68,0.0,0.0,100,0.00,,CLR,0.00,VWS V12.08,2013-09-18 03:06:00,
2013-09-17 23:11:00,42.6,42.6,30.33,ENE,68,0.0,0.0,100,0.00,,CLR,0.00,VWS V12.08,2013-09-18 03:11:00,
2013-09-17 23:16:00,42.5,42.5,30.33,ENE,68,0.0,0.0,100,0.00,,CLR,0.00,VWS V12.08,2013-09-18 03:16:00,
2013-09-17 23:21:00,42.3,42.3,30.33,ENE,68,0.0,0.0,100,0.00,,CLR,0.00,VWS V12.08,2013-09-18 03:21:00,
2013-09-17 23:26:00,42.3,42.3,30.33,ENE,68,0.0,0.0,100,0.00,,CLR,0.00,VWS V12.08,2013-09-18 03:26:00,
2013-09-17 23:31:00,42.3,42.3,30.33,ENE,68,0.0,0.0,100,0.00,,CLR,0.00,VWS V12.08,2013-09-18 03:31:00,
2013-09-17 23:36:00,42.2,42.2,30.33,ENE,68,0.0,0.0,100,0.00,,CLR,0.00,VWS V12.08,2013-09-18 03:36:00,
2013-09-17 23:41:00,41.9,41.9,30.33,ENE,68,0.0,0.0,100,0.00,,CLR,0.00,VWS V12.08,2013-09-18 03:41:00,
2013-09-17 23:46:00,41.8,41.8,30.32,ENE,68,0.0,0.0,100,0.00,,CLR,0.00,VWS V12.08,2013-09-18 03:46:00,
2013-09-17 23:51:00,41.8,41.8,30.32,ENE,68,0.0,2.0,100,0.00,,CLR,0.00,VWS V12.08,2013-09-18 03:51:00,
2013-09-17 23:56:00,41.8,41.8,30.32,ENE,68,0.0,0.0,100,0.00,,CLR,0.00,VWS V12.08,2013-09-18 03:56:00,